createdAt,value
2023-03-05T00:01:33.615Z,0.72
2023-03-05T00:04:04.451Z,0.64
2023-03-05T00:06:33.224Z,0.60
2023-03-05T00:09:00.798Z,0.60
2023-03-05T00:11:30.432Z,0.29
2023-03-05T00:13:58.464Z,0.56
2023-03-05T00:16:28.892Z,0.52
2023-03-05T00:18:57.926Z,0.47
2023-03-05T00:21:29.160Z,0.41
2023-03-05T00:23:58.229Z,0.45
2023-03-05T00:26:27.646Z,0.43
2023-03-05T00:28:56.340Z,0.34
2023-03-05T00:31:30.652Z,0.42
2023-03-05T00:34:01.773Z,0.35
2023-03-05T00:36:30.041Z,0.23
2023-03-05T00:38:57.799Z,0.24
2023-03-05T00:41:25.366Z,0.18
2023-03-05T00:43:53.546Z,0.10
2023-03-05T00:46:20.999Z,0.11
2023-03-05T00:48:48.429Z,0.13
2023-03-05T00:51:16.092Z,0.10
2023-03-05T00:53:43.314Z,0.06
2023-03-05T00:56:11.273Z,-0.03
2023-03-05T00:58:39.508Z,0.04
2023-03-05T01:01:07.100Z,0.00
2023-03-05T01:03:36.113Z,-0.19
2023-03-05T01:06:12.247Z,-0.10
2023-03-05T01:08:39.978Z,-0.04
2023-03-05T01:11:07.839Z,-0.12
2023-03-05T01:13:36.314Z,-0.07
2023-03-05T01:16:04.767Z,-0.08
2023-03-05T01:18:32.629Z,-0.16
2023-03-05T01:20:59.972Z,-0.38
2023-03-05T01:23:27.694Z,-0.19
2023-03-05T01:25:59.230Z,-0.13
2023-03-05T01:28:27.392Z,-0.21
2023-03-05T01:30:54.607Z,-0.24
2023-03-05T01:33:21.954Z,-0.25
2023-03-05T01:35:50.417Z,-0.28
2023-03-05T01:38:18.571Z,-0.34
2023-03-05T01:40:46.480Z,-0.31
2023-03-05T01:43:13.633Z,-0.23
2023-03-05T01:46:16.976Z,-0.18
2023-03-05T01:48:48.048Z,-0.30
2023-03-05T01:51:16.956Z,-0.42
2023-03-05T01:53:44.612Z,-0.33
2023-03-05T01:56:11.976Z,-0.37
2023-03-05T01:58:40.088Z,-0.33
2023-03-05T02:01:07.488Z,-0.49
2023-03-05T02:03:35.805Z,-0.45
2023-03-05T02:06:04.252Z,-0.52
2023-03-05T02:08:32.135Z,-0.50
2023-03-05T02:11:00.876Z,-0.55
2023-03-05T02:13:34.468Z,-0.54
2023-03-05T02:16:02.461Z,-0.48
2023-03-05T02:18:29.949Z,-0.58
2023-03-05T02:20:57.145Z,-0.50
2023-03-05T02:23:30.332Z,-0.56
2023-03-05T02:25:57.780Z,-0.99
2023-03-05T02:28:43.427Z,-0.49
2023-03-05T02:31:16.146Z,-0.53
2023-03-05T02:33:44.061Z,-0.79
2023-03-05T02:36:12.423Z,-0.58
2023-03-05T02:38:41.616Z,-0.67
2023-03-05T02:41:09.649Z,-0.78
2023-03-05T02:43:37.814Z,-0.74
2023-03-05T02:46:06.226Z,-0.71
2023-03-05T02:48:33.474Z,-0.72
2023-03-05T02:51:02.962Z,-0.70
2023-03-05T02:53:30.230Z,-0.75
2023-03-05T02:55:58.987Z,-0.71
2023-03-05T02:58:27.415Z,-0.86
2023-03-05T03:00:54.650Z,-0.79
2023-03-05T03:03:22.746Z,-0.85
2023-03-05T03:05:49.895Z,-0.82
2023-03-05T03:08:17.536Z,-0.87
2023-03-05T03:10:45.109Z,-0.95
2023-03-05T03:13:12.316Z,-0.95
2023-03-05T03:15:40.784Z,-0.95
2023-03-05T03:18:08.083Z,-0.91
2023-03-05T03:20:39.328Z,-1.00
2023-03-05T03:23:07.130Z,-1.05
2023-03-05T03:25:34.656Z,-1.23
2023-03-05T03:28:01.929Z,-1.00
2023-03-05T03:30:29.163Z,-0.97
2023-03-05T03:32:56.554Z,-0.88
2023-03-05T03:35:23.819Z,-0.76
2023-03-05T03:37:51.147Z,-0.70
2023-03-05T03:40:18.692Z,-0.79
2023-03-05T03:42:45.875Z,-0.78
2023-03-05T03:45:13.807Z,-0.89
2023-03-05T03:47:41.158Z,-0.83
2023-03-05T03:50:08.950Z,-0.90
2023-03-05T03:52:36.218Z,-1.01
2023-03-05T03:55:04.011Z,-1.05
2023-03-05T03:57:33.730Z,-1.02
2023-03-05T04:00:01.266Z,-1.29
2023-03-05T04:02:28.672Z,-1.17
2023-03-05T04:04:56.057Z,-1.13
2023-03-05T04:07:26.297Z,-1.23
2023-03-05T04:09:53.619Z,-1.34
2023-03-05T04:12:20.859Z,-1.24
2023-03-05T04:14:49.673Z,-1.21
2023-03-05T04:17:17.261Z,-1.33
2023-03-05T04:19:45.578Z,-1.26
2023-03-05T04:22:15.365Z,-1.31
2023-03-05T04:24:44.607Z,-1.26
2023-03-05T04:27:12.370Z,-1.38
2023-03-05T04:29:39.885Z,-1.29
2023-03-05T04:32:07.769Z,-1.39
2023-03-05T04:34:37.030Z,-1.38
2023-03-05T04:37:04.715Z,-1.58
2023-03-05T04:39:32.145Z,-1.64
2023-03-05T04:41:59.376Z,-1.62
2023-03-05T04:44:26.771Z,-1.47
2023-03-05T04:46:53.954Z,-1.47
2023-03-05T04:49:22.616Z,-1.38
2023-03-05T04:51:49.956Z,-1.48
2023-03-05T04:54:17.122Z,-1.50
2023-03-05T04:56:44.533Z,-1.49
2023-03-05T04:59:11.786Z,-1.47
2023-03-05T05:01:39.180Z,-1.54
2023-03-05T05:04:06.750Z,-1.54
2023-03-05T05:06:33.918Z,-1.59
2023-03-05T05:09:02.089Z,-1.56
2023-03-05T05:11:29.789Z,-1.62
2023-03-05T05:13:56.979Z,-1.60
2023-03-05T05:16:24.364Z,-1.63
2023-03-05T05:18:51.876Z,-1.67
2023-03-05T05:21:20.668Z,-1.66
2023-03-05T05:23:48.839Z,-1.69
2023-03-05T05:26:16.489Z,-1.64
2023-03-05T05:28:45.311Z,-1.69
2023-03-05T05:31:15.060Z,-1.78
2023-03-05T05:33:43.325Z,-1.78
2023-03-05T05:36:14.443Z,-1.73
2023-03-05T05:38:42.105Z,-1.89
2023-03-05T05:41:14.917Z,-1.69
2023-03-05T05:43:42.410Z,-1.74
2023-03-05T05:46:14.419Z,-1.68
2023-03-05T05:48:42.029Z,-1.84
2023-03-05T05:51:12.392Z,-1.96
2023-03-05T05:53:45.146Z,-1.70
2023-03-05T05:56:14.201Z,-1.88
2023-03-05T05:58:42.609Z,-1.78
2023-03-05T06:01:26.709Z,-1.89
2023-03-05T06:03:54.185Z,-1.68
2023-03-05T06:06:24.431Z,-1.61
2023-03-05T06:08:52.548Z,-1.84
2023-03-05T06:11:21.194Z,-1.70
2023-03-05T06:13:49.875Z,-1.70
2023-03-05T06:16:22.549Z,-1.65
2023-03-05T06:18:51.272Z,-1.63
2023-03-05T06:21:42.850Z,-1.62
2023-03-05T06:24:16.793Z,-1.69
2023-03-05T06:27:01.919Z,-1.67
2023-03-05T06:29:34.429Z,-1.65
2023-03-05T06:32:06.664Z,-1.49
2023-03-05T06:37:44.673Z,-1.60
2023-03-05T06:40:26.942Z,-1.57
2023-03-05T06:42:56.586Z,-1.59
2023-03-05T06:45:29.732Z,-1.72
2023-03-05T06:48:04.146Z,-1.85
2023-03-05T06:50:41.346Z,-1.78
2023-03-05T06:53:21.437Z,-1.80
2023-03-05T06:56:04.221Z,-1.77
2023-03-05T06:58:33.850Z,-1.91
2023-03-05T07:01:06.094Z,-1.88
2023-03-05T07:03:39.448Z,-1.96
2023-03-05T07:06:15.271Z,-2.02
2023-03-05T07:09:04.592Z,-1.71
2023-03-05T07:11:34.103Z,-1.89
2023-03-05T07:14:03.413Z,-1.62
2023-03-05T07:16:41.286Z,-1.54
2023-03-05T07:19:11.849Z,-1.50
2023-03-05T07:21:46.415Z,-1.54
2023-03-05T07:24:30.900Z,-1.78
2023-03-05T07:27:02.430Z,-1.58
2023-03-05T07:29:41.677Z,-1.64
2023-03-05T07:32:17.429Z,-1.47
2023-03-05T07:34:47.660Z,-1.45
2023-03-05T07:37:15.112Z,-1.51
2023-03-05T07:39:42.472Z,-1.52
2023-03-05T07:42:11.753Z,-1.40
2023-03-05T07:44:52.042Z,-1.38
2023-03-05T07:47:19.722Z,-1.33
2023-03-05T07:49:47.627Z,-1.26
2023-03-05T07:52:15.821Z,-1.23
2023-03-05T07:54:46.112Z,-0.90
2023-03-05T07:57:15.716Z,-0.83
2023-03-05T07:59:51.807Z,-0.70
2023-03-05T08:02:26.944Z,-0.52
2023-03-05T08:05:01.718Z,-0.79
2023-03-05T08:07:56.553Z,-0.22
2023-03-05T08:10:26.318Z,-0.53
2023-03-05T08:13:05.417Z,-0.13
2023-03-05T08:15:38.576Z,-0.31
2023-03-05T08:18:18.018Z,-0.02
2023-03-05T08:20:56.896Z,-0.17
2023-03-05T08:23:34.875Z,0.22
2023-03-05T08:26:27.784Z,0.39
2023-03-05T08:29:09.782Z,0.25
2023-03-05T08:32:07.700Z,0.62
2023-03-05T08:34:59.947Z,0.98
2023-03-05T08:37:36.288Z,1.14
2023-03-05T08:40:07.663Z,1.13
2023-03-05T08:42:47.185Z,1.10
2023-03-05T08:45:29.650Z,1.10
2023-03-05T08:48:07.943Z,1.02
2023-03-05T08:50:41.662Z,1.34
2023-03-05T08:53:09.188Z,1.46
2023-03-05T08:55:46.869Z,1.52
2023-03-05T08:58:35.038Z,1.35
2023-03-05T09:04:07.877Z,1.78
2023-03-05T09:06:42.288Z,1.99
2023-03-05T09:09:10.709Z,2.12
2023-03-05T09:11:38.503Z,2.29
2023-03-05T09:14:07.285Z,2.37
2023-03-05T09:16:36.056Z,2.16
2023-03-05T09:19:03.700Z,2.51
2023-03-05T09:22:04.492Z,2.75
2023-03-05T09:25:13.734Z,2.64
2023-03-05T09:27:58.578Z,2.80
2023-03-05T09:30:29.101Z,2.65
2023-03-05T09:33:20.871Z,3.12
2023-03-05T09:35:52.265Z,3.20
2023-03-05T09:38:22.674Z,3.35
2023-03-05T09:41:18.392Z,3.45
2023-03-05T09:44:05.614Z,3.55
2023-03-05T09:47:14.944Z,3.63
2023-03-05T09:49:50.168Z,3.55
2023-03-05T09:52:29.385Z,3.85
2023-03-05T09:55:10.157Z,3.98
2023-03-05T10:08:12.688Z,4.68
2023-03-05T10:11:19.830Z,4.63
2023-03-05T10:13:57.206Z,5.18
2023-03-05T10:17:12.385Z,4.98
2023-03-05T10:20:11.250Z,5.20
2023-03-05T10:22:59.464Z,5.23
2023-03-05T10:25:51.176Z,5.44
2023-03-05T10:28:57.043Z,5.41
2023-03-05T10:31:58.674Z,5.69
2023-03-05T10:34:56.317Z,5.57
2023-03-05T10:37:52.720Z,6.22
2023-03-05T10:40:42.414Z,5.93
2023-03-05T10:43:59.941Z,6.08
2023-03-05T10:46:48.320Z,5.93
2023-03-05T10:49:34.162Z,6.39
2023-03-05T10:52:32.001Z,6.74
2023-03-05T10:59:08.567Z,7.01
2023-03-05T11:01:41.305Z,7.14
2023-03-05T11:05:20.200Z,7.04
2023-03-05T11:07:49.027Z,7.16
2023-03-05T11:10:25.544Z,7.43
2023-03-05T11:12:54.467Z,7.26
2023-03-05T11:15:35.065Z,7.17
2023-03-05T11:18:09.381Z,7.38
2023-03-05T11:20:41.862Z,7.51
2023-03-05T11:23:25.745Z,7.55
2023-03-05T11:26:07.993Z,7.62
2023-03-05T11:28:43.038Z,8.00
2023-03-05T11:34:42.317Z,7.74
2023-03-05T11:37:41.689Z,8.06
2023-03-05T11:41:05.096Z,8.17
2023-03-05T11:43:48.941Z,8.23
2023-03-05T11:46:45.197Z,8.35
2023-03-05T11:50:11.739Z,8.72
2023-03-05T11:52:53.549Z,8.43
2023-03-05T11:55:29.479Z,8.49
2023-03-05T11:58:25.960Z,8.68
2023-03-05T12:00:59.417Z,8.62
2023-03-05T12:03:42.954Z,8.72
2023-03-05T12:06:20.101Z,8.95
2023-03-05T12:08:56.779Z,8.83
2023-03-05T12:11:31.962Z,8.73
2023-03-05T12:14:15.284Z,8.90
2023-03-05T12:16:54.773Z,8.87
2023-03-05T12:19:36.444Z,8.92
2023-03-05T12:22:26.665Z,9.03
2023-03-05T12:25:23.643Z,9.23
2023-03-05T12:27:51.991Z,9.25
2023-03-05T12:30:34.918Z,9.29
2023-03-05T12:33:10.950Z,9.24
2023-03-05T12:35:41.172Z,9.39
2023-03-05T12:38:35.204Z,9.43
2023-03-05T12:41:51.142Z,9.55
2023-03-05T12:44:24.601Z,9.67
2023-03-05T12:47:52.124Z,9.56
2023-03-05T12:50:56.170Z,9.07
2023-03-05T12:53:34.383Z,9.43
2023-03-05T12:56:26.254Z,9.52
2023-03-05T12:59:08.617Z,9.52
2023-03-05T13:02:28.631Z,9.36
2023-03-05T13:05:21.022Z,9.52
2023-03-05T13:10:51.921Z,9.47
2023-03-05T13:13:21.299Z,9.64
2023-03-05T13:15:52.519Z,9.74
2023-03-05T13:18:29.615Z,9.91
2023-03-05T13:21:09.490Z,9.84
2023-03-05T13:23:58.210Z,9.95
2023-03-05T13:26:52.282Z,10.09
2023-03-05T13:29:24.063Z,9.97
2023-03-05T13:31:58.094Z,9.76
2023-03-05T13:34:40.839Z,9.82
2023-03-05T13:37:26.456Z,9.66
2023-03-05T13:40:24.186Z,9.62
2023-03-05T13:42:57.874Z,9.74
2023-03-05T13:45:29.633Z,9.62
2023-03-05T13:48:12.933Z,9.52
2023-03-05T13:50:42.281Z,10.06
2023-03-05T13:53:39.356Z,9.80
2023-03-05T13:56:29.376Z,9.73
2023-03-05T13:59:02.870Z,9.66
2023-03-05T14:01:32.735Z,10.03
2023-03-05T14:04:28.925Z,9.88
2023-03-05T14:07:46.434Z,10.06
2023-03-05T14:10:36.774Z,10.06
2023-03-05T14:13:25.223Z,10.28
2023-03-05T14:16:37.313Z,10.39
2023-03-05T14:19:08.790Z,9.91
2023-03-05T14:25:40.084Z,9.89
2023-03-05T14:28:53.385Z,9.94
2023-03-05T14:32:14.814Z,10.24
2023-03-05T14:34:58.839Z,10.51
2023-03-05T14:37:37.015Z,10.36
2023-03-05T14:40:14.678Z,10.44
2023-03-05T14:42:58.555Z,10.53
2023-03-05T14:45:35.012Z,10.47
2023-03-05T14:48:07.735Z,10.68
2023-03-05T14:51:02.448Z,10.61
2023-03-05T14:53:41.427Z,10.81
2023-03-05T14:56:22.498Z,10.83
2023-03-05T14:58:54.177Z,10.63
2023-03-05T15:01:38.272Z,10.59
2023-03-05T15:04:13.058Z,10.61
2023-03-05T15:06:48.562Z,10.57
2023-03-05T15:09:22.123Z,10.26
2023-03-05T15:12:05.094Z,10.64
2023-03-05T15:14:57.552Z,10.45
2023-03-05T15:18:13.904Z,10.51
2023-03-05T15:20:43.998Z,10.18
2023-03-05T15:23:18.710Z,10.46
2023-03-05T15:25:53.448Z,10.18
2023-03-05T15:28:41.240Z,10.28
2023-03-05T15:31:13.649Z,10.05
2023-03-05T15:33:43.057Z,10.08
2023-03-05T15:36:11.242Z,9.97
2023-03-05T15:38:50.653Z,9.86
2023-03-05T15:41:30.051Z,9.86
2023-03-05T15:44:41.821Z,10.00
2023-03-05T15:47:14.221Z,10.11
2023-03-05T15:50:25.744Z,10.04
2023-03-05T15:52:53.592Z,9.81
2023-03-05T15:55:37.057Z,9.65
2023-03-05T15:58:29.307Z,9.73
2023-03-05T16:01:21.714Z,9.44
2023-03-05T16:04:05.113Z,9.59
2023-03-05T16:06:45.960Z,9.60
2023-03-05T16:09:27.853Z,9.60
2023-03-05T16:11:57.991Z,9.70
2023-03-05T16:14:31.734Z,9.64
2023-03-05T16:17:06.052Z,9.64
2023-03-05T16:23:45.735Z,9.60
2023-03-05T16:26:48.937Z,9.54
2023-03-05T16:29:42.044Z,9.46
2023-03-05T16:32:21.924Z,9.50
2023-03-05T16:35:04.619Z,9.43
2023-03-05T16:38:07.025Z,9.33
2023-03-05T16:41:06.132Z,9.29
2023-03-05T16:43:38.666Z,9.26
2023-03-05T16:46:33.947Z,9.20
2023-03-05T16:49:11.521Z,9.10
2023-03-05T16:51:50.399Z,9.21
2023-03-05T16:54:22.737Z,9.06
2023-03-05T16:56:54.514Z,9.09
2023-03-05T16:59:55.177Z,8.89
2023-03-05T17:02:33.957Z,8.94
2023-03-05T17:05:08.651Z,8.67
2023-03-05T17:07:49.264Z,8.69
2023-03-05T17:10:18.897Z,8.61
2023-03-05T17:12:48.127Z,8.68
2023-03-05T17:15:16.550Z,8.45
2023-03-05T17:17:58.109Z,8.44
2023-03-05T17:20:41.210Z,8.44
2023-03-05T17:23:51.499Z,8.34
2023-03-05T17:26:39.008Z,8.01
2023-03-05T17:29:08.403Z,8.13
2023-03-05T17:31:36.396Z,8.00
2023-03-05T17:34:06.339Z,7.75
2023-03-05T17:36:36.031Z,7.78
2023-03-05T17:39:14.756Z,7.81
2023-03-05T17:41:53.240Z,7.65
2023-03-05T17:44:21.877Z,7.76
2023-03-05T17:46:49.994Z,7.62
2023-03-05T17:49:47.205Z,7.55
2023-03-05T17:52:54.761Z,7.33
2023-03-05T17:55:33.131Z,7.22
2023-03-05T17:58:02.227Z,7.16
2023-03-05T18:00:40.470Z,6.92
2023-03-05T18:03:14.021Z,6.98
2023-03-05T18:06:11.412Z,6.78
2023-03-05T18:08:47.787Z,6.71
2023-03-05T18:11:22.261Z,6.63
2023-03-05T18:13:51.861Z,6.44
2023-03-05T18:16:24.360Z,6.28
2023-03-05T18:18:53.042Z,6.14
2023-03-05T18:21:23.216Z,6.04
2023-03-05T18:23:56.418Z,5.81
2023-03-05T18:31:56.735Z,5.41
2023-03-05T18:34:26.296Z,5.24
2023-03-05T18:36:54.358Z,4.98
2023-03-05T18:39:33.933Z,4.87
2023-03-05T18:42:14.051Z,4.98
2023-03-05T18:44:50.100Z,4.85
2023-03-05T18:47:17.577Z,4.75
2023-03-05T18:50:00.148Z,4.66
2023-03-05T18:52:31.317Z,4.55
2023-03-05T18:55:21.732Z,4.31
2023-03-05T18:57:51.335Z,4.46
2023-03-05T19:00:35.077Z,4.38
2023-03-05T19:03:09.637Z,4.24
2023-03-05T19:06:00.214Z,4.15
2023-03-05T19:08:31.685Z,3.98
2023-03-05T19:11:00.420Z,3.94
2023-03-05T19:13:46.007Z,3.92
2023-03-05T19:16:19.061Z,3.78
2023-03-05T19:19:15.831Z,3.70
2023-03-05T19:21:46.408Z,3.41
2023-03-05T19:24:26.314Z,3.54
2023-03-05T19:27:02.548Z,3.31
2023-03-05T19:29:33.471Z,3.34
2023-03-05T19:32:06.057Z,2.93
2023-03-05T19:34:33.671Z,3.22
2023-03-05T19:37:02.294Z,3.11
2023-03-05T19:39:29.896Z,3.16
2023-03-05T19:41:57.206Z,3.12
2023-03-05T19:44:25.290Z,3.03
2023-03-05T19:46:53.122Z,3.01
2023-03-05T19:49:26.011Z,2.87
2023-03-05T19:51:54.652Z,2.79
2023-03-05T19:54:23.226Z,2.65
2023-03-05T19:56:54.902Z,2.68
2023-03-05T19:59:23.486Z,2.32
2023-03-05T20:01:50.868Z,2.73
2023-03-05T20:04:23.878Z,2.43
2023-03-05T20:07:17.961Z,2.48
2023-03-05T20:09:53.447Z,2.36
2023-03-05T20:12:23.833Z,2.24
2023-03-05T20:14:51.224Z,2.11
2023-03-05T20:17:20.319Z,2.01
2023-03-05T20:19:49.427Z,2.08
2023-03-05T20:22:18.682Z,2.09
2023-03-05T20:24:48.289Z,2.16
2023-03-05T20:27:16.314Z,2.16
2023-03-05T20:29:43.719Z,2.06
2023-03-05T20:32:11.227Z,2.03
2023-03-05T20:34:38.775Z,1.96
2023-03-05T20:37:06.520Z,2.11
2023-03-05T20:39:34.303Z,2.06
2023-03-05T20:42:01.542Z,1.93
2023-03-05T20:44:29.000Z,1.99
2023-03-05T20:47:10.250Z,1.97
2023-03-05T20:49:37.502Z,1.69
2023-03-05T20:52:04.857Z,1.82
2023-03-05T20:54:32.055Z,1.52
2023-03-05T20:56:59.488Z,1.63
2023-03-05T20:59:27.345Z,1.40
2023-03-05T21:01:54.894Z,1.37
2023-03-05T21:04:22.239Z,1.53
2023-03-05T21:06:54.128Z,1.53
2023-03-05T21:09:21.475Z,1.39
2023-03-05T21:11:48.826Z,1.39
2023-03-05T21:14:15.989Z,1.35
2023-03-05T21:16:44.311Z,1.20
2023-03-05T21:19:11.621Z,1.08
2023-03-05T21:21:44.944Z,1.14
2023-03-05T21:24:12.869Z,1.11
2023-03-05T21:26:40.042Z,1.04
2023-03-05T21:29:11.358Z,0.89
2023-03-05T21:31:40.224Z,0.95
2023-03-05T21:34:08.960Z,0.82
2023-03-05T21:36:36.258Z,0.88
2023-03-05T21:39:03.596Z,0.79
2023-03-05T21:41:33.315Z,0.77
2023-03-05T21:44:04.864Z,0.81
2023-03-05T21:46:32.343Z,0.65
2023-03-05T21:48:59.898Z,0.65
2023-03-05T21:51:37.237Z,0.58
2023-03-05T21:54:04.973Z,0.42
2023-03-05T21:56:33.354Z,0.47
2023-03-05T21:59:00.836Z,0.33
2023-03-05T22:01:33.072Z,0.34
2023-03-05T22:04:00.996Z,0.29
2023-03-05T22:06:28.317Z,0.24
2023-03-05T22:08:55.658Z,0.22
2023-03-05T22:11:23.122Z,0.21
2023-03-05T22:13:50.476Z,0.12
2023-03-05T22:16:23.474Z,0.12
2023-03-05T22:18:51.738Z,0.06
2023-03-05T22:21:22.436Z,0.00
2023-03-05T22:23:51.613Z,0.04
2023-03-05T22:26:19.443Z,-0.06
2023-03-05T22:28:46.829Z,-0.29
2023-03-05T22:31:21.562Z,-0.14
2023-03-05T22:33:49.312Z,-0.20
2023-03-05T22:36:16.538Z,-0.10
2023-03-05T22:38:44.008Z,-0.16
2023-03-05T22:41:15.403Z,-0.24
2023-03-05T22:43:47.176Z,-0.22
2023-03-05T22:46:18.410Z,-0.23
2023-03-05T22:48:47.491Z,-0.28
2023-03-05T22:51:16.160Z,-0.33
2023-03-05T22:53:44.247Z,-0.34
2023-03-05T22:56:14.321Z,-0.40
2023-03-05T22:58:42.224Z,-0.43
2023-03-05T23:01:21.824Z,-0.57
2023-03-05T23:03:55.229Z,-0.48
2023-03-05T23:06:23.744Z,-0.48
2023-03-05T23:08:51.053Z,-0.90
2023-03-05T23:11:18.241Z,-0.47
2023-03-05T23:13:45.481Z,-0.67
2023-03-05T23:16:12.685Z,-0.73
2023-03-05T23:18:39.986Z,-0.60
2023-03-05T23:21:07.239Z,-0.57
2023-03-05T23:23:35.734Z,-0.57
2023-03-05T23:26:03.197Z,-0.58
2023-03-05T23:28:30.688Z,-0.66
2023-03-05T23:30:58.642Z,-0.83
2023-03-05T23:33:25.902Z,-0.65
2023-03-05T23:35:59.174Z,-0.69
2023-03-05T23:38:28.537Z,-0.76
2023-03-05T23:41:00.709Z,-0.96
2023-03-05T23:43:28.397Z,-0.84
2023-03-05T23:45:56.463Z,-0.90
2023-03-05T23:48:25.830Z,-0.69
2023-03-05T23:50:53.620Z,-0.69
2023-03-05T23:53:27.435Z,-0.73
2023-03-05T23:55:56.140Z,-0.88
2023-03-05T23:58:23.857Z,-1.01
